Vremea acum in Baia Mare - Romania

Vrei sa afli care e starea vremii acum in Maramures - Romania? Dorim sa iti furnizam starea vremii pentru Maramures - Romania. Starea vremii Maramures - Romania pentru astazi.

Vremea acum in Baia Mare

Temperatura: 20 °C

Se simte ca: 20 °C
Innorat: 50 %
Precipitatii: 0 %
Presiune atmosferica: 1016 hPa
Umiditate: 78%
Vizibilitate: 10 km
Vantul bate din S cu 6.1 km/h

Evolutia vremii in Baia Mare pe ore

Ora: 04:00
Parțial noros
Temperatura: 17.7°C
Sansa de precipitatii: 0%
Ora Descriere Temp Se simte Precipitatii Umiditate Vant
00:00Parțial noros22.7°25.4°52%81%E 5.8 KM/H
01:00Ploi pe porţiuni în apropiere20.3°20.3°26%84%E 4.7 KM/H
02:00Parțial noros17.8°17.8°0%87%E 3.6 KM/H
03:00Parțial noros17.7°17.7°0%88%E 3.6 KM/H
04:00Parțial noros17.7°17.7°0%88%E 4 KM/H
05:00Parțial noros17.6°17.6°0%88%E 4 KM/H
06:00Parțial noros18.8°18.8°0%84%E 3.6 KM/H
07:00Parțial noros19.9°19.9°0%80%E 2.9 KM/H
08:00Parțial noros21.1°21.1°0%77%E 2.5 KM/H
09:00Ploi pe porţiuni în apropiere23.5°26.1°27%70%ESE 2.9 KM/H
10:00Parțial noros25.9°28°53%63%ESE 2.9 KM/H
11:00Ploi pe porţiuni în apropiere28.3°29.8°80%57%SE 3.2 KM/H
12:00Parțial noros28.4°29.9°53%57%SSE 5 KM/H
13:00Ploi pe porţiuni în apropiere28.4°29.9°27%56%SSE 6.8 KM/H
14:00Parțial noros28.5°30°0%56%S 8.6 KM/H
15:00Ploi moderate uneori28.8°30.4°29%56%SSW 7.2 KM/H
16:00Parțial noros29°30.8°59%56%SSW 5.4 KM/H
17:00Ploi moderate uneori29.3°31.2°88%56%SSW 4 KM/H
18:00Parțial noros28.3°30.2°59%64%SSE 5 KM/H
19:00Ploi moderate uneori27.3°29.3°29%72%ESE 5.8 KM/H
20:00Parțial noros26.3°28.3°0%79%ENE 6.8 KM/H
21:00Ploi moderate uneori25°27.3°30%81%ENE 6.8 KM/H
22:00Parțial noros23.6°26.3°61%82%ENE 6.5 KM/H
23:00Ploi moderate uneori22.3°25.3°91%83%E 6.5 KM/H